Time;durP1;ratioP1;P1;durP2;ratioP2;P2;SDS_P1;SDS_P2;PMS_P1;PMS_P2;Temp;Humidity;BMP_temperature;BMP_pressure;BME280_temperature;BME280_humidity;BME280_pressure;Samples;Min_cycle;Max_cycle;Signal;HPM_P1;HPM_P2
2023/07/14 00:01:31;;;;;;;0.10;0.10;;;;;;;21.83;67.42;101828.81;5031297;28;20086;-66
2023/07/14 00:03:57;;;;;;;0.10;0.10;;;;;;;21.68;68.24;101822.47;5031354;28;20029;-64
2023/07/14 00:06:23;;;;;;;0.10;0.10;;;;;;;21.62;69.12;101826.31;5013478;28;20025;-63
2023/07/14 00:08:49;;;;;;;0.00;0.00;;;;;;;21.67;68.25;101829.06;5031812;28;20017;-65
2023/07/14 00:11:21;;;;;;;0.10;0.10;;;;;;;21.60;69.01;101818.38;5031329;28;20064;-65
2023/07/14 00:13:49;;;;;;;0.10;0.10;;;;;;;21.66;68.19;101825.47;5030882;28;20044;-65
2023/07/14 00:16:18;;;;;;;0.10;0.10;;;;;;;21.43;68.67;101825.22;5030926;28;20045;-64
2023/07/14 00:18:44;;;;;;;0.10;0.10;;;;;;;21.27;70.04;101815.34;5031191;28;20506;-64
2023/07/14 00:21:18;;;;;;;0.10;0.10;;;;;;;21.39;70.11;101816.75;5032098;28;20040;-65
2023/07/14 00:23:45;;;;;;;0.10;0.10;;;;;;;20.93;70.45;101809.56;5031398;28;20488;-66
2023/07/14 00:26:17;;;;;;;0.10;0.10;;;;;;;21.37;68.72;101802.53;5013242;28;20074;-66
2023/07/14 00:28:43;;;;;;;0.10;0.10;;;;;;;21.39;68.72;101802.25;5031230;28;20036;-64
2023/07/14 00:31:14;;;;;;;0.00;0.00;;;;;;;21.37;68.61;101802.53;5030985;28;20045;-65
2023/07/14 00:33:41;;;;;;;0.10;0.10;;;;;;;21.34;68.04;101803.09;5030571;28;20030;-65
2023/07/14 00:36:07;;;;;;;0.10;0.10;;;;;;;21.29;67.92;101803.06;5031064;28;20469;-65
2023/07/14 00:38:34;;;;;;;0.10;0.10;;;;;;;21.29;68.33;101800.31;5030645;28;20080;-65
2023/07/14 00:41:01;;;;;;;0.08;0.08;;;;;;;21.26;68.87;101792.69;5030763;28;20038;-64
2023/07/14 00:43:29;;;;;;;0.10;0.10;;;;;;;21.25;68.26;101791.03;5030125;28;20111;-64
2023/07/14 00:45:56;;;;;;;0.05;0.05;;;;;;;21.11;69.02;101792.66;5030475;28;20431;-63
2023/07/14 00:48:24;;;;;;;0.10;0.10;;;;;;;21.20;68.60;101795.69;5030451;28;20488;-64
2023/07/14 00:51:16;;;;;;;0.10;0.10;;;;;;;21.10;69.62;101790.19;5030586;28;20107;-65
2023/07/14 00:53:46;;;;;;;0.10;0.10;;;;;;;21.11;68.43;101789.91;5030685;28;20041;-64
2023/07/14 00:56:12;;;;;;;0.10;0.10;;;;;;;21.19;68.21;101796.78;5030883;28;20460;-64
2023/07/14 00:58:39;;;;;;;0.10;0.10;;;;;;;21.18;68.04;101793.22;5030440;28;20413;-64
2023/07/14 01:01:04;;;;;;;0.10;0.10;;;;;;;21.04;68.88;101796.75;5030737;28;20505;-64
2023/07/14 01:03:31;;;;;;;0.10;0.10;;;;;;;21.12;69.33;101797.03;5030350;28;20025;-65
2023/07/14 01:05:59;;;;;;;0.10;0.10;;;;;;;21.14;68.97;101796.75;5030692;28;20025;-64
2023/07/14 01:08:26;;;;;;;0.05;0.05;;;;;;;20.55;71.74;101799.88;5030205;28;20121;-64
2023/07/14 01:10:53;;;;;;;0.10;0.10;;;;;;;20.72;72.01;101794.19;5029978;28;20396;-63
2023/07/14 01:13:19;;;;;;;0.10;0.10;;;;;;;20.99;70.07;101790.16;5029896;28;20465;-64
2023/07/14 01:15:45;;;;;;;0.10;0.10;;;;;;;20.70;72.89;101788.19;5029974;28;20041;-65
2023/07/14 01:18:11;;;;;;;0.10;0.10;;;;;;;21.03;69.95;101793.19;5030244;28;20381;-64
2023/07/14 01:20:38;;;;;;;0.10;0.10;;;;;;;20.85;70.35;101794.50;5029631;28;20112;-63
2023/07/14 01:23:03;;;;;;;0.10;0.10;;;;;;;21.08;69.72;101792.38;5029971;28;20292;-65
2023/07/14 01:25:38;;;;;;;0.10;0.10;;;;;;;20.63;72.53;101793.09;5029955;28;20168;-65
2023/07/14 01:28:12;;;;;;;0.10;0.10;;;;;;;20.86;71.28;101801.63;5029950;28;20029;-64
2023/07/14 01:30:39;;;;;;;0.10;0.10;;;;;;;20.77;71.42;101791.50;5029735;28;20033;-65
2023/07/14 01:33:11;;;;;;;0.10;0.10;;;;;;;21.03;69.71;101784.19;5030071;28;20049;-65
2023/07/14 01:35:39;;;;;;;0.10;0.10;;;;;;;20.76;70.54;101784.38;5029606;28;20497;-64
2023/07/14 01:38:06;;;;;;;0.10;0.10;;;;;;;20.93;70.27;101785.75;5029595;28;20044;-64
2023/07/14 01:40:33;;;;;;;0.10;0.10;;;;;;;20.85;70.59;101783.56;5029235;28;20069;-63
2023/07/14 01:43:01;;;;;;;0.10;0.10;;;;;;;20.70;71.50;101778.06;5029272;28;20037;-64
2023/07/14 01:45:32;;;;;;;0.10;0.10;;;;;;;20.78;71.10;101783.00;5028589;28;20026;-64
2023/07/14 01:48:00;;;;;;;0.10;0.10;;;;;;;20.81;71.21;101784.41;5029954;28;20029;-64
2023/07/14 01:50:32;;;;;;;0.05;0.05;;;;;;;20.76;71.03;101785.19;5029258;28;20117;-63
2023/07/14 01:53:04;;;;;;;0.10;0.10;;;;;;;20.64;71.89;101779.16;5029166;28;20521;-63
2023/07/14 01:55:34;;;;;;;0.20;0.20;;;;;;;20.78;70.73;101779.44;5029609;28;20323;-63
2023/07/14 01:58:05;;;;;;;0.20;0.20;;;;;;;20.79;71.32;101779.22;5029404;28;20037;-63
2023/07/14 02:00:31;;;;;;;0.10;0.10;;;;;;;20.65;71.15;101774.50;5028999;28;20029;-65
2023/07/14 02:02:59;;;;;;;0.10;0.10;;;;;;;20.64;70.60;101776.41;5029965;28;20453;-63
2023/07/14 02:05:30;;;;;;;0.10;0.10;;;;;;;20.55;72.25;101778.03;5029184;28;20060;-64
2023/07/14 02:08:02;;;;;;;0.10;0.10;;;;;;;20.66;71.18;101776.97;5028866;28;20083;-63
2023/07/14 02:10:28;;;;;;;0.10;0.10;;;;;;;20.58;71.53;101771.22;5029023;28;20064;-64
2023/07/14 02:12:55;;;;;;;0.10;0.10;;;;;;;20.68;71.23;101769.31;5029974;28;20053;-65
2023/07/14 02:15:25;;;;;;;0.10;0.10;;;;;;;20.66;71.84;101779.69;5028835;28;20075;-65
2023/07/14 02:17:52;;;;;;;0.10;0.10;;;;;;;20.72;70.94;101767.69;5028930;28;20040;-63
2023/07/14 02:20:25;;;;;;;0.10;0.10;;;;;;;20.80;70.89;101769.06;5029328;28;20029;-64
2023/07/14 02:22:53;;;;;;;0.10;0.10;;;;;;;20.59;70.57;101759.19;5028715;28;20049;-64
2023/07/14 02:25:21;;;;;;;0.10;0.10;;;;;;;20.62;70.92;101753.19;5028863;28;20029;-64
2023/07/14 02:27:47;;;;;;;0.10;0.10;;;;;;;20.59;71.14;101751.00;5029156;28;20017;-63
2023/07/14 02:30:19;;;;;;;0.10;0.10;;;;;;;20.68;71.22;101752.94;5029058;28;20030;-65
2023/07/14 02:32:56;;;;;;;0.10;0.10;;;;;;;20.57;71.34;101754.00;5029160;28;20156;-65
2023/07/14 02:35:50;;;;;;;0.10;0.10;;;;;;;20.52;71.18;101742.25;5028961;28;20025;-65
2023/07/14 02:38:17;;;;;;;0.10;0.10;;;;;;;20.48;70.96;101752.88;4986493;28;20457;-64
2023/07/14 02:40:53;;;;;;;0.10;0.10;;;;;;;20.59;70.64;101749.09;4986663;28;20512;-64
2023/07/14 02:43:21;;;;;;;0.10;0.10;;;;;;;20.48;70.75;101750.16;4991290;28;20504;-66
2023/07/14 02:45:54;;;;;;;0.10;0.10;;;;;;;20.52;71.03;101743.06;4990189;28;20462;-64
2023/07/14 02:48:30;;;;;;;0.10;0.10;;;;;;;20.52;71.05;101736.81;5006465;28;20116;-65
2023/07/14 02:50:57;;;;;;;0.10;0.10;;;;;;;20.53;70.82;101739.25;5006087;28;20061;-65
2023/07/14 02:53:23;;;;;;;0.10;0.10;;;;;;;20.43;70.73;101741.13;5006146;28;20034;-64
2023/07/14 02:55:48;;;;;;;0.10;0.10;;;;;;;20.42;70.91;101739.50;5006450;28;20034;-66
2023/07/14 02:58:14;;;;;;;0.10;0.10;;;;;;;20.37;72.00;101739.47;5009658;28;20034;-65
2023/07/14 03:00:39;;;;;;;0.10;0.10;;;;;;;20.34;71.84;101740.84;5010496;28;20044;-66
2023/07/14 03:03:05;;;;;;;0.15;0.15;;;;;;;20.47;71.16;101750.41;5010267;28;20045;-65
2023/07/14 03:05:30;;;;;;;0.10;0.10;;;;;;;20.58;71.50;101752.13;5010113;28;20528;-65
2023/07/14 03:07:55;;;;;;;0.10;0.10;;;;;;;20.58;72.28;101750.19;5009744;28;20129;-66
2023/07/14 03:10:21;;;;;;;0.03;0.03;;;;;;;20.66;72.30;101748.81;5010016;28;20028;-65
2023/07/14 03:12:46;;;;;;;0.13;0.13;;;;;;;20.78;72.01;101746.66;5010413;28;20052;-65
2023/07/14 03:15:12;;;;;;;0.10;0.10;;;;;;;20.63;72.14;101752.94;5006802;28;20030;-65
2023/07/14 03:17:37;;;;;;;0.10;0.10;;;;;;;20.87;72.42;101747.78;5032244;28;20140;-65
2023/07/14 03:20:04;;;;;;;0.10;0.10;;;;;;;20.99;71.79;101740.16;5032313;28;20489;-66
2023/07/14 03:22:30;;;;;;;0.10;0.10;;;;;;;21.16;70.82;101739.91;5032307;28;20041;-65
2023/07/14 03:24:58;;;;;;;0.10;0.10;;;;;;;20.98;71.40;101736.59;5032603;28;20071;-63
2023/07/14 03:27:23;;;;;;;0.10;0.10;;;;;;;20.97;72.14;101745.06;5032215;28;20117;-63
2023/07/14 03:29:49;;;;;;;0.10;0.10;;;;;;;21.06;70.67;101738.00;5031847;28;20401;-65
2023/07/14 03:32:14;;;;;;;0.10;0.10;;;;;;;21.14;71.30;101739.34;5031598;28;20099;-65
2023/07/14 03:34:40;;;;;;;0.10;0.10;;;;;;;21.13;70.72;101733.06;5031674;28;20046;-65
2023/07/14 03:37:06;;;;;;;0.00;0.00;;;;;;;21.17;71.37;101733.38;5032063;28;20026;-65
2023/07/14 03:39:31;;;;;;;0.00;0.00;;;;;;;21.12;71.64;101734.16;5031474;28;20064;-65
2023/07/14 03:41:57;;;;;;;0.10;0.10;;;;;;;21.18;70.92;101735.00;5031775;28;20620;-65
2023/07/14 03:44:24;;;;;;;0.10;0.10;;;;;;;20.83;72.41;101736.56;5031228;28;20040;-64
2023/07/14 03:46:50;;;;;;;0.10;0.10;;;;;;;20.92;72.70;101732.22;5031802;28;20301;-64
2023/07/14 03:49:16;;;;;;;0.10;0.10;;;;;;;21.33;70.52;101732.25;5031255;28;20121;-65
2023/07/14 03:51:42;;;;;;;0.10;0.10;;;;;;;21.42;70.87;101731.44;5031807;28;20604;-64
2023/07/14 03:54:10;;;;;;;0.10;0.10;;;;;;;21.38;70.70;101733.06;5031441;28;20034;-64
2023/07/14 03:56:35;;;;;;;0.00;0.00;;;;;;;21.51;69.74;101727.03;5031524;28;20100;-63
2023/07/14 03:59:01;;;;;;;0.10;0.10;;;;;;;21.30;70.50;101727.34;5031344;28;20045;-64
2023/07/14 04:01:26;;;;;;;0.10;0.10;;;;;;;21.10;71.33;101732.78;5029059;28;20025;-64
2023/07/14 04:03:52;;;;;;;0.00;0.00;;;;;;;21.41;70.36;101728.94;5031348;28;20477;-64
2023/07/14 04:06:17;;;;;;;0.00;0.00;;;;;;;20.94;72.26;101729.22;5030874;28;20030;-65
2023/07/14 04:08:44;;;;;;;0.10;0.10;;;;;;;21.37;70.56;101727.84;5029923;28;20038;-65
2023/07/14 04:11:10;;;;;;;0.10;0.10;;;;;;;21.31;70.25;101732.53;5029838;28;20034;-64
2023/07/14 04:13:36;;;;;;;0.10;0.10;;;;;;;21.20;70.43;101732.81;5028698;28;20033;-63
2023/07/14 04:16:03;;;;;;;0.10;0.10;;;;;;;21.18;70.45;101732.25;5031257;28;20495;-65
2023/07/14 04:18:29;;;;;;;0.10;0.10;;;;;;;21.32;70.43;101727.88;5031040;28;20029;-65
2023/07/14 04:21:02;;;;;;;0.10;0.10;;;;;;;20.61;72.93;101729.72;5012957;28;20405;-65
2023/07/14 04:23:28;;;;;;;0.10;0.10;;;;;;;20.91;71.91;101735.22;5031086;28;20061;-65
2023/07/14 04:25:54;;;;;;;0.00;0.00;;;;;;;20.73;72.74;101730.28;5031077;28;20180;-63
2023/07/14 04:28:19;;;;;;;0.10;0.10;;;;;;;21.11;71.66;101735.25;5029771;28;20044;-65
2023/07/14 04:30:53;;;;;;;0.00;0.00;;;;;;;21.06;71.51;101739.91;5031542;28;20547;-65
2023/07/14 04:33:18;;;;;;;0.10;0.10;;;;;;;21.04;70.71;101734.72;5030914;28;20063;-65
2023/07/14 04:35:43;;;;;;;0.00;0.00;;;;;;;21.16;71.15;101732.53;5030970;28;20512;-65
2023/07/14 04:38:09;;;;;;;0.10;0.10;;;;;;;21.01;71.37;101729.81;5030404;28;20029;-65
2023/07/14 04:40:38;;;;;;;0.00;0.00;;;;;;;21.03;71.43;101727.59;5030263;28;20245;-65
2023/07/14 04:43:04;;;;;;;0.10;0.10;;;;;;;21.09;71.29;101717.50;5031115;28;20265;-65
2023/07/14 04:45:29;;;;;;;0.10;0.10;;;;;;;21.09;71.51;101720.25;5031029;28;20045;-65
2023/07/14 04:47:56;;;;;;;0.05;0.05;;;;;;;21.06;71.73;101724.34;5030800;28;20045;-66
2023/07/14 04:50:22;;;;;;;0.10;0.10;;;;;;;21.15;71.16;101717.22;5030137;28;20045;-65
2023/07/14 04:52:47;;;;;;;0.00;0.00;;;;;;;21.20;70.96;101722.69;5030169;28;20025;-63
2023/07/14 04:55:13;;;;;;;0.10;0.10;;;;;;;20.91;72.78;101725.09;5030409;28;20029;-64
2023/07/14 04:57:38;;;;;;;0.10;0.10;;;;;;;21.11;72.22;101724.31;5031209;28;20023;-65
2023/07/14 05:00:05;;;;;;;0.10;0.10;;;;;;;21.14;72.66;101725.69;5030295;28;20037;-64
2023/07/14 05:02:30;;;;;;;0.10;0.10;;;;;;;21.10;72.52;101716.41;5030124;28;20088;-64
2023/07/14 05:05:19;;;;;;;0.10;0.10;;;;;;;21.61;71.51;101716.06;5030158;28;20069;-63
2023/07/14 05:07:44;;;;;;;0.10;0.10;;;;;;;21.40;71.64;101719.94;5030243;28;20378;-64
2023/07/14 05:10:10;;;;;;;0.00;0.00;;;;;;;21.30;72.37;101710.94;5030259;28;20052;-63
2023/07/14 05:12:36;;;;;;;0.10;0.10;;;;;;;21.35;72.89;101710.91;5030487;28;20029;-64
2023/07/14 05:15:06;;;;;;;0.10;0.10;;;;;;;21.39;72.67;101718.28;5030005;28;20064;-64
2023/07/14 05:17:34;;;;;;;0.00;0.00;;;;;;;21.41;72.12;101710.63;5029630;28;20575;-62
2023/07/14 05:19:59;;;;;;;0.10;0.10;;;;;;;21.32;73.06;101711.47;5029723;28;20034;-65
2023/07/14 05:22:25;;;;;;;0.13;0.13;;;;;;;21.40;72.09;101706.28;5029749;28;20130;-63
2023/07/14 05:24:50;;;;;;;0.08;0.08;;;;;;;21.47;72.03;101701.31;5030187;28;20098;-62
2023/07/14 05:27:15;;;;;;;0.10;0.10;;;;;;;21.45;72.34;101705.41;5029718;28;20434;-62
2023/07/14 05:29:41;;;;;;;0.03;0.03;;;;;;;21.53;71.70;101708.44;5029662;28;20038;-63
2023/07/14 05:32:07;;;;;;;0.08;0.08;;;;;;;21.57;72.30;101697.75;5029593;28;20041;-62
2023/07/14 05:34:32;;;;;;;0.10;0.10;;;;;;;21.46;72.75;101696.94;5029639;28;20040;-63
2023/07/14 05:36:57;;;;;;;0.10;0.10;;;;;;;21.24;74.51;101704.66;5030231;28;20789;-64
2023/07/14 05:39:23;;;;;;;0.10;0.10;;;;;;;21.63;72.20;101708.41;5029254;28;20444;-64
2023/07/14 05:41:48;;;;;;;0.00;0.00;;;;;;;21.33;73.74;101711.19;5029404;28;20428;-63
2023/07/14 05:44:14;;;;;;;0.08;0.08;;;;;;;21.59;72.13;101707.31;5029372;28;20041;-63
2023/07/14 05:46:39;;;;;;;0.10;0.10;;;;;;;21.52;72.27;101695.03;5010915;28;20040;-63
2023/07/14 05:49:06;;;;;;;0.10;0.10;;;;;;;21.58;72.85;101699.41;5032528;28;20080;-62
2023/07/14 05:51:31;;;;;;;0.00;0.00;;;;;;;22.02;70.26;101703.09;5049489;28;20053;-65
2023/07/14 05:53:57;;;;;;;0.10;0.10;;;;;;;21.69;71.85;101707.31;5034525;28;20041;-68
2023/07/14 05:56:22;;;;;;;0.08;0.08;;;;;;;21.52;72.94;101698.56;5029383;28;20038;-63
2023/07/14 05:58:48;;;;;;;0.10;0.10;;;;;;;21.27;74.10;101695.88;5029467;28;20587;-64
2023/07/14 06:01:13;;;;;;;0.00;0.00;;;;;;;21.85;71.98;101691.69;5029394;28;20036;-63
2023/07/14 06:03:38;;;;;;;0.05;0.05;;;;;;;21.27;74.11;101692.31;5030142;28;20021;-64
2023/07/14 06:06:05;;;;;;;0.00;0.00;;;;;;;22.04;70.80;101691.88;5041245;28;20505;-62
2023/07/14 06:08:30;;;;;;;0.10;0.10;;;;;;;22.21;69.96;101695.09;5029162;28;20468;-64
2023/07/14 06:10:55;;;;;;;0.00;0.00;;;;;;;22.19;69.52;101691.81;5028842;28;20053;-64
2023/07/14 06:13:22;;;;;;;0.00;0.00;;;;;;;21.91;69.68;101687.84;5029139;28;20025;-63
2023/07/14 06:15:51;;;;;;;0.10;0.10;;;;;;;22.16;68.89;101682.22;5029694;28;20047;-65
2023/07/14 06:18:17;;;;;;;0.10;0.10;;;;;;;22.18;68.90;101684.69;5027877;28;20132;-63
2023/07/14 06:20:42;;;;;;;0.10;0.10;;;;;;;21.96;69.90;101687.78;5028748;28;20088;-63
2023/07/14 06:23:07;;;;;;;0.10;0.10;;;;;;;22.35;68.58;101685.97;5028955;28;20030;-63
2023/07/14 06:25:33;;;;;;;0.00;0.00;;;;;;;22.07;68.80;101681.19;5029153;28;20030;-63
2023/07/14 06:27:59;;;;;;;0.00;0.00;;;;;;;22.32;66.00;101682.97;5029549;28;20032;-65
2023/07/14 06:30:25;;;;;;;0.00;0.00;;;;;;;22.18;66.67;101682.78;5028614;28;20262;-62
2023/07/14 06:32:51;;;;;;;0.00;0.00;;;;;;;22.52;65.88;101677.38;5031768;28;20034;-64
2023/07/14 06:35:17;;;;;;;0.00;0.00;;;;;;;21.65;66.88;101680.75;5032945;28;20035;-66
2023/07/14 06:37:43;;;;;;;0.00;0.00;;;;;;;21.60;67.17;101673.38;5032608;28;20033;-63
2023/07/14 06:40:09;;;;;;;0.00;0.00;;;;;;;22.59;63.21;101673.25;5032861;28;20381;-65
2023/07/14 06:42:35;;;;;;;0.00;0.00;;;;;;;22.18;63.09;101680.03;5033446;28;20033;-64
2023/07/14 06:45:02;;;;;;;0.10;0.10;;;;;;;22.26;63.80;101671.22;5032827;28;20029;-64
2023/07/14 06:47:27;;;;;;;0.08;0.08;;;;;;;22.33;63.27;101671.72;5033086;28;20111;-65
2023/07/14 06:49:52;;;;;;;0.00;0.00;;;;;;;22.36;63.13;101671.19;5042128;28;20049;-63
2023/07/14 06:52:18;;;;;;;0.00;0.00;;;;;;;22.00;61.97;101677.09;5052577;28;20730;-66
2023/07/14 06:54:45;;;;;;;0.00;0.00;;;;;;;21.70;63.38;101676.09;5053323;28;20268;-62
2023/07/14 06:57:11;;;;;;;0.00;0.00;;;;;;;22.87;60.27;101674.41;5052535;28;20061;-63
2023/07/14 06:59:36;;;;;;;0.00;0.00;;;;;;;23.39;58.91;101668.16;5052544;28;20090;-62
2023/07/14 07:02:02;;;;;;;0.00;0.00;;;;;;;23.09;59.88;101671.19;5052728;28;20036;-64
2023/07/14 07:04:28;;;;;;;0.00;0.00;;;;;;;22.82;61.69;101665.41;5052484;28;20029;-62
2023/07/14 07:06:53;;;;;;;0.00;0.00;;;;;;;23.22;59.38;101663.09;5042788;28;20017;-64
2023/07/14 07:09:19;;;;;;;0.00;0.00;;;;;;;22.87;58.94;101662.59;5032348;28;20084;-63
2023/07/14 07:11:44;;;;;;;0.10;0.10;;;;;;;22.97;59.78;101665.25;5032075;28;20404;-65
2023/07/14 07:14:10;;;;;;;0.00;0.00;;;;;;;23.46;57.52;101658.50;5032108;28;20489;-65
2023/07/14 07:16:36;;;;;;;0.00;0.00;;;;;;;23.09;59.47;101657.47;5032543;28;20116;-63
2023/07/14 07:19:02;;;;;;;0.00;0.00;;;;;;;22.58;61.38;101659.84;5032167;28;20014;-65
2023/07/14 07:21:27;;;;;;;0.10;0.10;;;;;;;22.96;59.99;101655.41;5031659;28;20049;-62
2023/07/14 07:23:53;;;;;;;0.00;0.00;;;;;;;22.67;60.74;101658.94;5031913;28;20525;-64
2023/07/14 07:26:18;;;;;;;0.00;0.00;;;;;;;23.66;59.20;101649.22;5031981;28;20033;-62
2023/07/14 07:28:44;;;;;;;0.00;0.00;;;;;;;24.03;57.98;101640.25;5031880;28;20042;-62
2023/07/14 07:31:11;;;;;;;0.00;0.00;;;;;;;23.77;58.88;101638.94;5031666;28;20037;-62
2023/07/14 07:33:37;;;;;;;0.00;0.00;;;;;;;23.67;60.39;101630.81;5032478;28;20055;-63
2023/07/14 07:36:14;;;;;;;0.00;0.00;;;;;;;24.38;58.16;101634.25;5031527;28;20079;-67
2023/07/14 07:38:42;;;;;;;0.00;0.00;;;;;;;23.76;59.31;101629.91;5031745;28;20116;-68
2023/07/14 07:41:07;;;;;;;0.00;0.00;;;;;;;23.88;59.12;101638.50;5031525;28;20560;-67
2023/07/14 07:43:32;;;;;;;0.00;0.00;;;;;;;24.34;58.04;101628.56;5030063;28;20033;-67
2023/07/14 07:45:58;;;;;;;0.00;0.00;;;;;;;24.24;57.66;101625.13;5032383;28;20026;-68
2023/07/14 07:48:23;;;;;;;0.00;0.00;;;;;;;24.02;57.35;101625.72;5031480;28;20572;-67
2023/07/14 07:50:49;;;;;;;0.00;0.00;;;;;;;23.85;59.27;101628.13;5048228;28;20410;-67
2023/07/14 07:53:14;;;;;;;0.00;0.00;;;;;;;24.55;56.55;101622.75;5051213;28;20077;-68
2023/07/14 07:55:40;;;;;;;0.00;0.00;;;;;;;24.85;55.10;101625.00;5051547;28;20033;-67
2023/07/14 07:58:05;;;;;;;0.00;0.00;;;;;;;24.38;55.50;101628.78;5052166;28;20017;-68
2023/07/14 08:00:30;;;;;;;0.00;0.00;;;;;;;24.56;53.09;101614.19;5051185;28;20456;-67
2023/07/14 08:02:56;;;;;;;0.00;0.00;;;;;;;23.75;54.27;101617.25;5051581;28;20481;-67
2023/07/14 08:05:21;;;;;;;0.00;0.00;;;;;;;23.55;55.13;101609.28;5051275;28;20040;-67
2023/07/14 08:07:47;;;;;;;0.00;0.00;;;;;;;23.55;53.73;101612.84;5033026;28;20037;-67
2023/07/14 08:10:12;;;;;;;0.00;0.00;;;;;;;24.24;51.92;101603.97;5031056;28;20472;-67
2023/07/14 08:12:37;;;;;;;0.00;0.00;;;;;;;24.39;53.60;101603.72;5031487;28;20053;-68
2023/07/14 08:15:03;;;;;;;0.00;0.00;;;;;;;23.90;52.77;101603.31;5029252;28;20328;-67
2023/07/14 08:17:33;;;;;;;0.00;0.00;;;;;;;23.52;53.37;101599.72;5012978;28;20052;-66
2023/07/14 08:19:59;;;;;;;0.00;0.00;;;;;;;23.83;54.68;101602.06;5030852;28;20456;-67
2023/07/14 08:22:26;;;;;;;0.08;0.08;;;;;;;24.64;52.67;101599.78;5030746;28;20043;-68
2023/07/14 08:24:53;;;;;;;0.00;0.00;;;;;;;24.78;51.45;101602.59;5031666;28;20563;-68
2023/07/14 08:27:19;;;;;;;0.00;0.00;;;;;;;25.09;51.46;101599.00;5031110;28;20041;-67
2023/07/14 08:29:44;;;;;;;0.00;0.00;;;;;;;24.51;52.91;101600.53;5030756;28;20033;-68
2023/07/14 08:32:09;;;;;;;0.00;0.00;;;;;;;24.50;51.84;101600.81;5030840;28;20033;-68
2023/07/14 08:34:35;;;;;;;0.00;0.00;;;;;;;24.25;53.43;101593.81;5030801;28;20026;-67
2023/07/14 08:37:01;;;;;;;0.00;0.00;;;;;;;24.30;51.97;101599.22;5030827;28;20491;-68
2023/07/14 08:39:26;;;;;;;0.00;0.00;;;;;;;24.68;51.77;101599.97;5030650;28;20029;-67
2023/07/14 08:42:03;;;;;;;0.00;0.00;;;;;;;24.47;50.23;101601.44;5030375;28;20540;-68
2023/07/14 08:44:47;;;;;;;0.10;0.10;;;;;;;24.79;49.01;101596.78;5030248;28;20300;-67
2023/07/14 08:47:23;;;;;;;0.00;0.00;;;;;;;25.00;47.93;101595.31;5029317;28;20401;-68
2023/07/14 08:50:00;;;;;;;0.00;0.00;;;;;;;25.77;47.11;101585.25;5038861;28;20052;-67
2023/07/14 08:52:35;;;;;;;0.00;0.00;;;;;;;25.05;48.58;101591.66;5050001;28;20049;-68
2023/07/14 08:55:12;;;;;;;0.00;0.00;;;;;;;26.15;47.06;101587.75;5050344;28;20036;-68
2023/07/14 08:57:44;;;;;;;0.00;0.00;;;;;;;25.11;47.14;101588.50;5050189;28;20041;-67
2023/07/14 09:00:15;;;;;;;0.00;0.00;;;;;;;26.08;45.48;101585.44;5031932;28;20033;-68
2023/07/14 09:03:05;;;;;;;0.00;0.00;;;;;;;26.43;44.92;101579.06;5050173;28;20091;-68
2023/07/14 09:05:34;;;;;;;0.00;0.00;;;;;;;25.62;45.47;101591.09;5050177;28;20033;-68
2023/07/14 09:07:59;;;;;;;0.00;0.00;;;;;;;24.78;46.29;101580.59;5030077;28;20045;-68
2023/07/14 09:10:51;;;;;;;0.00;0.00;;;;;;;24.79;46.88;101582.22;5029714;28;20029;-67
2023/07/14 09:13:27;;;;;;;0.00;0.00;;;;;;;25.05;45.56;101586.97;5029862;28;20052;-68
2023/07/14 09:15:53;;;;;;;0.00;0.00;;;;;;;24.91;46.51;101588.88;5030506;28;20033;-67
2023/07/14 09:18:48;;;;;;;0.00;0.00;;;;;;;25.67;45.47;101579.97;5030140;28;20440;-67
2023/07/14 09:21:37;;;;;;;0.00;0.00;;;;;;;25.32;44.92;101575.16;5029715;28;20038;-67
2023/07/14 09:24:17;;;;;;;0.00;0.00;;;;;;;25.35;46.22;101569.06;5029722;28;20038;-67
2023/07/14 09:26:46;;;;;;;0.00;0.00;;;;;;;25.77;45.38;101568.72;5029679;28;20075;-68
2023/07/14 09:29:19;;;;;;;0.00;0.00;;;;;;;25.32;44.78;101575.16;5029261;28;20038;-67
2023/07/14 09:31:48;;;;;;;0.00;0.00;;;;;;;26.02;44.59;101576.41;5029556;28;20470;-68
2023/07/14 09:34:25;;;;;;;0.00;0.00;;;;;;;25.32;45.87;101571.63;5029680;28;20171;-67
2023/07/14 09:36:52;;;;;;;0.00;0.00;;;;;;;25.73;45.28;101567.72;5029777;28;20022;-66
2023/07/14 09:39:32;;;;;;;0.00;0.00;;;;;;;26.62;44.16;101570.59;5029622;28;20040;-68
2023/07/14 09:42:00;;;;;;;0.00;0.00;;;;;;;26.62;43.56;101574.16;5029297;28;20440;-68
2023/07/14 09:44:26;;;;;;;0.00;0.00;;;;;;;26.47;44.35;101565.47;5029400;28;20065;-68
2023/07/14 09:46:53;;;;;;;0.00;0.00;;;;;;;26.71;43.63;101569.53;5029766;28;20053;-66
2023/07/14 09:49:30;;;;;;;0.00;0.00;;;;;;;27.07;42.50;101563.91;5033944;28;20045;-68
2023/07/14 09:52:18;;;;;;;0.00;0.00;;;;;;;26.65;43.57;101565.25;5050208;28;20040;-67
2023/07/14 09:54:56;;;;;;;0.00;0.00;;;;;;;26.56;44.23;101566.34;5049828;28;20090;-66
2023/07/14 09:57:26;;;;;;;0.00;0.00;;;;;;;26.32;45.24;101571.38;5049381;28;20033;-67
2023/07/14 09:59:57;;;;;;;0.00;0.00;;;;;;;26.57;44.17;101566.03;5049370;28;20049;-68
2023/07/14 10:02:28;;;;;;;0.00;0.00;;;;;;;25.93;46.11;101577.47;5049788;28;20029;-67
2023/07/14 10:05:00;;;;;;;0.00;0.00;;;;;;;25.56;45.22;101570.28;5049311;28;20116;-68
2023/07/14 10:07:26;;;;;;;0.00;0.00;;;;;;;25.36;46.53;101565.16;5032654;28;20110;-67
2023/07/14 10:10:00;;;;;;;0.00;0.00;;;;;;;26.15;45.72;101560.19;5030396;28;20037;-66
2023/07/14 10:12:34;;;;;;;0.00;0.00;;;;;;;25.20;47.69;101561.91;5029592;28;20049;-68
2023/07/14 10:15:00;;;;;;;0.00;0.00;;;;;;;25.54;47.23;101558.78;5029359;28;20178;-67
2023/07/14 10:17:27;;;;;;;0.00;0.00;;;;;;;25.17;48.37;101561.72;5029317;28;20049;-67
2023/07/14 10:19:56;;;;;;;0.00;0.00;;;;;;;25.07;49.71;101561.91;5029099;28;20088;-67
2023/07/14 10:22:31;;;;;;;0.00;0.00;;;;;;;25.18;49.78;101564.16;5011067;28;20033;-67
2023/07/14 10:24:58;;;;;;;0.00;0.00;;;;;;;24.81;49.97;101553.31;5029529;28;20041;-67
2023/07/14 10:27:30;;;;;;;0.00;0.00;;;;;;;25.30;49.26;101563.63;5029280;28;20428;-67
2023/07/14 10:30:26;;;;;;;0.00;0.00;;;;;;;26.36;47.16;101553.88;5028776;28;20034;-68
2023/07/14 10:32:55;;;;;;;0.00;0.00;;;;;;;26.34;46.94;101539.59;5028880;28;20125;-68
2023/07/14 10:35:24;;;;;;;0.00;0.00;;;;;;;26.48;46.74;101545.84;5029064;28;20515;-67
2023/07/14 10:38:04;;;;;;;0.00;0.00;;;;;;;25.95;47.46;101547.66;5028953;28;20057;-67
2023/07/14 10:40:36;;;;;;;0.00;0.00;;;;;;;25.60;47.86;101531.94;5028908;28;20044;-68
2023/07/14 10:43:08;;;;;;;0.00;0.00;;;;;;;26.27;45.81;101528.19;5028898;28;20056;-67
2023/07/14 10:45:45;;;;;;;0.00;0.00;;;;;;;26.29;46.00;101528.69;5028849;28;20095;-66
2023/07/14 10:48:20;;;;;;;0.00;0.00;;;;;;;25.33;47.39;101529.19;5028774;28;20042;-68
2023/07/14 10:51:12;;;;;;;0.00;0.00;;;;;;;25.49;47.80;101536.06;5045015;28;20040;-67
2023/07/14 10:53:46;;;;;;;0.00;0.00;;;;;;;25.45;48.10;101532.28;5048289;28;20041;-68
2023/07/14 10:56:45;;;;;;;0.00;0.00;;;;;;;26.47;47.07;101533.22;5049083;28;20033;-68
2023/07/14 10:59:37;;;;;;;0.00;0.00;;;;;;;26.87;45.46;101521.13;4986836;28;20043;-65
2023/07/14 11:02:12;;;;;;;0.00;0.00;;;;;;;27.01;44.01;101518.25;4984515;28;20038;-68
2023/07/14 11:04:51;;;;;;;0.00;0.00;;;;;;;26.43;45.12;101523.94;4986885;28;20039;-67
2023/07/14 11:07:25;;;;;;;0.00;0.00;;;;;;;26.08;45.53;101520.09;4973627;28;20034;-67
2023/07/14 11:09:50;;;;;;;0.00;0.00;;;;;;;26.04;44.88;101516.31;4967748;28;20103;-67
2023/07/14 11:12:44;;;;;;;0.00;0.00;;;;;;;26.92;44.59;101507.22;4967228;28;20053;-66
2023/07/14 11:15:12;;;;;;;0.00;0.00;;;;;;;27.17;44.36;101513.94;4951205;28;20035;-67
2023/07/14 11:18:13;;;;;;;0.00;0.00;;;;;;;25.89;45.88;101524.94;4967434;28;20070;-67
2023/07/14 11:21:05;;;;;;;0.00;0.00;;;;;;;26.65;44.35;101515.63;4951322;29;20411;-68
2023/07/14 11:24:04;;;;;;;0.00;0.00;;;;;;;26.97;44.58;101517.25;4951084;29;20460;-68
2023/07/14 11:26:38;;;;;;;0.00;0.00;;;;;;;27.09;44.52;101519.41;4951251;29;20094;-69
2023/07/14 11:29:22;;;;;;;0.00;0.00;;;;;;;27.08;44.23;101504.84;4951150;29;20134;-67
2023/07/14 11:31:58;;;;;;;0.00;0.00;;;;;;;26.60;45.80;101517.69;4951168;29;20063;-67
2023/07/14 11:34:33;;;;;;;0.00;0.00;;;;;;;26.90;45.34;101520.50;4951104;29;20501;-68